createdAt,value
2019-05-20T00:02:21.674Z,13.58
2019-05-20T00:04:37.337Z,13.57
2019-05-20T00:07:05.570Z,13.58
2019-05-20T00:09:33.787Z,13.60
2019-05-20T00:12:02.034Z,13.60
2019-05-20T00:14:30.273Z,13.59
2019-05-20T00:16:58.490Z,13.58
2019-05-20T00:19:26.729Z,13.54
2019-05-20T00:21:54.940Z,13.51
2019-05-20T00:24:23.172Z,13.49
2019-05-20T00:26:51.472Z,13.48
2019-05-20T00:29:19.837Z,13.47
2019-05-20T00:31:48.070Z,13.43
2019-05-20T00:34:16.280Z,13.39
2019-05-20T00:36:44.506Z,13.41
2019-05-20T00:39:14.403Z,13.42
2019-05-20T00:41:42.648Z,13.42
2019-05-20T00:44:10.965Z,13.38
2019-05-20T00:46:39.186Z,13.35
2019-05-20T00:49:07.430Z,13.32
2019-05-20T00:51:35.627Z,13.31
2019-05-20T00:54:03.933Z,13.35
2019-05-20T00:56:32.112Z,13.36
2019-05-20T00:59:00.490Z,13.36
2019-05-20T01:01:28.700Z,13.33
2019-05-20T01:03:56.919Z,13.28
2019-05-20T01:06:25.128Z,13.23
2019-05-20T01:08:53.361Z,13.23
2019-05-20T01:11:21.622Z,13.18
2019-05-20T01:13:49.863Z,13.14
2019-05-20T01:16:18.092Z,13.11
2019-05-20T01:18:46.331Z,13.10
2019-05-20T01:21:14.558Z,13.11
2019-05-20T01:23:42.778Z,13.10
2019-05-20T01:26:11.000Z,13.09
2019-05-20T01:28:39.221Z,13.03
2019-05-20T01:31:07.445Z,12.99
2019-05-20T01:33:35.695Z,12.92
2019-05-20T01:36:03.987Z,12.89
2019-05-20T01:38:32.205Z,12.84
2019-05-20T01:41:00.461Z,12.84
2019-05-20T01:43:28.682Z,12.81
2019-05-20T01:45:56.892Z,12.82
2019-05-20T01:48:25.128Z,12.84
2019-05-20T01:50:53.439Z,12.84
2019-05-20T01:53:21.642Z,12.86
2019-05-20T01:55:49.891Z,12.85
2019-05-20T01:58:18.112Z,12.84
2019-05-20T02:00:46.337Z,12.80
2019-05-20T02:03:30.233Z,12.82
2019-05-20T02:05:44.501Z,12.84
2019-05-20T02:08:12.719Z,12.83
2019-05-20T02:10:40.976Z,12.81
2019-05-20T02:13:09.195Z,12.81
2019-05-20T02:15:39.050Z,12.09
2019-05-20T02:18:07.277Z,12.83
2019-05-20T02:20:35.521Z,12.82
2019-05-20T02:23:15.935Z,12.81
2019-05-20T02:25:46.854Z,12.72
2019-05-20T02:28:15.311Z,12.72
2019-05-20T02:30:43.570Z,12.80
2019-05-20T02:33:11.809Z,12.85
2019-05-20T02:35:40.038Z,12.85
2019-05-20T02:38:08.282Z,12.88
2019-05-20T02:40:36.500Z,12.89
2019-05-20T02:43:04.737Z,12.92
2019-05-20T02:45:32.966Z,12.93
2019-05-20T02:48:01.198Z,12.91
2019-05-20T02:50:29.417Z,12.90
2019-05-20T02:52:57.754Z,12.88
2019-05-20T02:55:25.961Z,12.82
2019-05-20T02:57:54.291Z,12.79
2019-05-20T03:00:22.512Z,12.80
2019-05-20T03:02:50.746Z,12.84
2019-05-20T03:05:19.869Z,12.86
2019-05-20T03:07:48.081Z,12.55
2019-05-20T03:10:16.300Z,12.84
2019-05-20T03:12:44.509Z,12.82
2019-05-20T03:15:12.744Z,12.82
2019-05-20T03:17:40.982Z,12.85
2019-05-20T03:20:09.214Z,12.87
2019-05-20T03:22:37.436Z,12.87
2019-05-20T03:25:06.988Z,12.88
2019-05-20T03:27:35.197Z,12.90
2019-05-20T03:30:03.783Z,12.92
2019-05-20T03:32:32.029Z,12.89
2019-05-20T03:35:01.322Z,12.86
2019-05-20T03:37:29.795Z,12.82
2019-05-20T03:39:58.009Z,12.74
2019-05-20T03:42:26.229Z,12.68
2019-05-20T03:44:54.445Z,12.64
2019-05-20T03:47:22.687Z,12.64
2019-05-20T03:49:50.897Z,12.67
2019-05-20T03:52:19.130Z,12.71
2019-05-20T03:54:47.336Z,12.74
2019-05-20T03:57:15.566Z,12.79
2019-05-20T03:59:43.805Z,12.80
2019-05-20T04:02:12.046Z,12.86
2019-05-20T04:04:40.253Z,12.85
2019-05-20T04:07:08.463Z,12.82
2019-05-20T04:09:36.735Z,12.75
2019-05-20T04:12:04.966Z,12.68
2019-05-20T04:14:33.215Z,12.65
2019-05-20T04:17:01.430Z,12.69
2019-05-20T04:19:29.674Z,12.66
2019-05-20T04:21:57.877Z,12.59
2019-05-20T04:24:26.079Z,12.59
2019-05-20T04:26:57.579Z,12.62
2019-05-20T04:29:25.782Z,12.64
2019-05-20T04:31:54.001Z,12.61
2019-05-20T04:34:22.223Z,12.60
2019-05-20T04:36:50.463Z,12.62
2019-05-20T04:39:18.712Z,12.65
2019-05-20T04:41:46.944Z,12.67
2019-05-20T04:44:15.154Z,12.71
2019-05-20T04:46:43.402Z,12.74
2019-05-20T04:49:11.615Z,12.75
2019-05-20T04:51:39.848Z,12.75
2019-05-20T04:54:08.085Z,12.77
2019-05-20T04:56:36.297Z,12.80
2019-05-20T04:59:04.520Z,12.81
2019-05-20T05:01:32.741Z,12.81
2019-05-20T05:04:00.980Z,12.82
2019-05-20T05:06:29.219Z,12.84
2019-05-20T05:08:57.457Z,12.89
2019-05-20T05:11:25.702Z,12.98
2019-05-20T05:13:53.986Z,13.07
2019-05-20T05:16:22.535Z,13.18
2019-05-20T05:18:50.779Z,13.23
2019-05-20T05:21:19.006Z,13.23
2019-05-20T05:23:58.699Z,13.32
2019-05-20T05:26:17.223Z,13.38
2019-05-20T05:28:45.449Z,13.46
2019-05-20T05:31:13.662Z,13.54
2019-05-20T05:33:41.919Z,13.61
2019-05-20T05:36:10.114Z,13.68
2019-05-20T05:38:38.356Z,13.69
2019-05-20T05:41:06.593Z,13.68
2019-05-20T05:43:34.853Z,13.66
2019-05-20T05:46:03.093Z,13.69
2019-05-20T05:48:31.319Z,13.77
2019-05-20T05:51:01.175Z,13.85
2019-05-20T05:53:29.392Z,12.90
2019-05-20T05:55:57.623Z,13.96
2019-05-20T05:58:25.916Z,13.90
2019-05-20T06:00:54.139Z,13.83
2019-05-20T06:03:22.346Z,13.82
2019-05-20T06:05:50.931Z,13.80
2019-05-20T06:08:19.938Z,13.82
2019-05-20T06:10:48.160Z,13.79
2019-05-20T06:13:16.392Z,13.78
2019-05-20T06:15:44.603Z,12.96
2019-05-20T06:18:12.858Z,13.91
2019-05-20T06:20:41.164Z,13.96
2019-05-20T06:23:09.472Z,14.01
2019-05-20T06:25:37.701Z,14.10
2019-05-20T06:28:05.915Z,14.20
2019-05-20T06:30:39.485Z,14.28
2019-05-20T06:33:07.736Z,14.28
2019-05-20T06:35:36.110Z,14.23
2019-05-20T06:38:06.158Z,14.22
2019-05-20T06:40:34.378Z,14.21
2019-05-20T06:43:02.598Z,14.27
2019-05-20T06:45:30.819Z,14.27
2019-05-20T06:47:59.096Z,14.29
2019-05-20T06:50:29.587Z,14.24
2019-05-20T06:52:57.260Z,14.21
2019-05-20T06:55:25.498Z,14.22
2019-05-20T06:57:53.751Z,14.30
2019-05-20T07:00:36.395Z,14.43
2019-05-20T07:03:04.962Z,14.54
2019-05-20T07:05:33.216Z,14.64
2019-05-20T07:08:01.634Z,14.76
2019-05-20T07:10:29.932Z,14.85
2019-05-20T07:12:58.182Z,15.03
2019-05-20T07:15:26.412Z,15.22
2019-05-20T07:17:54.645Z,15.44
2019-05-20T07:20:22.874Z,15.65
2019-05-20T07:22:55.601Z,16.03
2019-05-20T07:25:21.182Z,16.44
2019-05-20T07:27:49.387Z,16.93
2019-05-20T07:30:17.611Z,17.29
2019-05-20T07:32:45.873Z,17.50
2019-05-20T07:35:28.718Z,17.53
2019-05-20T07:37:44.054Z,17.63
2019-05-20T07:40:12.443Z,17.71
2019-05-20T07:42:40.657Z,17.69
2019-05-20T07:45:08.965Z,17.72
2019-05-20T07:47:37.178Z,17.68
2019-05-20T07:50:06.570Z,17.38
2019-05-20T07:52:34.778Z,17.17
2019-05-20T07:55:03.030Z,17.12
2019-05-20T07:57:33.788Z,17.21
2019-05-20T08:00:02.018Z,17.46
2019-05-20T08:02:30.227Z,17.90
2019-05-20T08:04:58.450Z,18.17
2019-05-20T08:07:30.128Z,18.35
2019-05-20T08:09:56.637Z,18.47
2019-05-20T08:12:24.872Z,18.63
2019-05-20T08:14:53.115Z,18.80
2019-05-20T08:17:21.321Z,19.01
2019-05-20T08:19:49.539Z,19.15
2019-05-20T08:22:17.797Z,19.17
2019-05-20T08:24:46.012Z,19.23
2019-05-20T08:27:14.243Z,19.25
2019-05-20T08:29:42.541Z,19.30
2019-05-20T08:32:10.754Z,19.35
2019-05-20T08:34:40.154Z,19.41
2019-05-20T08:37:08.681Z,19.42
2019-05-20T08:39:36.927Z,19.43
2019-05-20T08:42:05.155Z,19.44
2019-05-20T08:44:33.459Z,19.40
2019-05-20T08:47:01.946Z,19.36
2019-05-20T08:49:30.203Z,19.42
2019-05-20T08:51:58.757Z,19.33
2019-05-20T08:54:26.929Z,19.34
2019-05-20T08:56:55.198Z,19.46
2019-05-20T08:59:23.451Z,19.66
2019-05-20T09:01:51.655Z,19.68
2019-05-20T09:04:19.935Z,19.60
2019-05-20T09:06:48.158Z,19.62
2019-05-20T09:09:16.383Z,19.75
2019-05-20T09:11:47.706Z,19.78
2019-05-20T09:14:14.626Z,19.72
2019-05-20T09:16:42.965Z,19.67
2019-05-20T09:19:11.238Z,19.60
2019-05-20T09:21:39.451Z,19.58
2019-05-20T09:24:07.724Z,19.65
2019-05-20T09:26:35.991Z,19.72
2019-05-20T09:29:04.193Z,19.69
2019-05-20T09:31:32.411Z,19.79
2019-05-20T09:34:00.630Z,19.92
2019-05-20T09:36:28.883Z,19.79
2019-05-20T09:38:57.100Z,19.78
2019-05-20T09:41:25.321Z,19.85
2019-05-20T09:43:53.630Z,19.85
2019-05-20T09:46:21.886Z,19.79
2019-05-20T09:48:50.126Z,19.79
2019-05-20T09:51:18.429Z,19.88
2019-05-20T09:53:46.726Z,20.04
2019-05-20T09:56:14.961Z,20.16
2019-05-20T09:58:43.166Z,20.16
2019-05-20T10:01:11.394Z,20.12
2019-05-20T10:03:39.642Z,20.17
2019-05-20T10:06:07.917Z,20.29
2019-05-20T10:08:43.256Z,20.31
2019-05-20T10:11:06.106Z,20.33
2019-05-20T10:13:34.314Z,20.45
2019-05-20T10:16:02.559Z,20.53
2019-05-20T10:18:37.310Z,20.64
2019-05-20T10:21:00.748Z,20.53
2019-05-20T10:23:28.962Z,20.47
2019-05-20T10:25:57.206Z,20.35
2019-05-20T10:28:25.424Z,20.36
2019-05-20T10:30:53.638Z,20.44
2019-05-20T10:33:21.899Z,20.55
2019-05-20T10:35:50.114Z,20.54
2019-05-20T10:38:18.319Z,20.52
2019-05-20T10:40:46.534Z,20.47
2019-05-20T10:43:14.753Z,20.42
2019-05-20T10:45:43.006Z,20.44
2019-05-20T10:48:11.221Z,20.45
2019-05-20T10:50:39.479Z,20.37
2019-05-20T10:53:07.703Z,20.50
2019-05-20T10:55:35.931Z,20.73
2019-05-20T10:58:04.360Z,20.94
2019-05-20T11:00:32.524Z,21.02
2019-05-20T11:03:00.750Z,21.05
2019-05-20T11:05:28.981Z,21.19
2019-05-20T11:07:57.408Z,21.39
2019-05-20T11:10:25.712Z,21.40
2019-05-20T11:12:54.681Z,21.37
2019-05-20T11:15:22.919Z,21.45
2019-05-20T11:17:51.146Z,21.38
2019-05-20T11:20:20.145Z,21.15
2019-05-20T11:22:48.383Z,20.94
2019-05-20T11:25:16.776Z,20.68
2019-05-20T11:27:45.001Z,20.52
2019-05-20T11:30:13.222Z,20.47
2019-05-20T11:32:41.446Z,20.40
2019-05-20T11:35:09.678Z,20.40
2019-05-20T11:37:37.884Z,20.43
2019-05-20T11:40:10.114Z,20.37
2019-05-20T11:42:38.912Z,20.38
2019-05-20T11:45:10.097Z,20.42
2019-05-20T11:47:38.330Z,20.35
2019-05-20T11:50:09.465Z,20.37
2019-05-20T11:52:37.816Z,20.49
2019-05-20T11:55:08.228Z,20.48
2019-05-20T11:57:36.437Z,20.41
2019-05-20T12:00:12.118Z,20.51
2019-05-20T12:02:40.352Z,20.66
2019-05-20T12:05:08.596Z,20.72
2019-05-20T12:07:36.796Z,20.82
2019-05-20T12:10:06.170Z,20.94
2019-05-20T12:12:34.383Z,20.93
2019-05-20T12:15:03.970Z,20.92
2019-05-20T12:17:32.838Z,20.95
2019-05-20T12:20:01.066Z,21.10
2019-05-20T12:22:29.275Z,21.20
2019-05-20T12:24:57.513Z,21.19
2019-05-20T12:27:25.804Z,21.11
2019-05-20T12:29:53.989Z,21.02
2019-05-20T12:32:22.300Z,21.06
2019-05-20T12:34:50.504Z,21.14
2019-05-20T12:37:18.802Z,21.19
2019-05-20T12:39:47.053Z,21.18
2019-05-20T12:42:15.387Z,21.24
2019-05-20T12:44:43.621Z,21.29
2019-05-20T12:47:11.839Z,21.45
2019-05-20T12:49:40.064Z,21.56
2019-05-20T12:52:08.378Z,21.53
2019-05-20T12:54:36.601Z,21.57
2019-05-20T12:57:04.907Z,21.54
2019-05-20T12:59:33.117Z,21.51
2019-05-20T13:02:01.331Z,21.56
2019-05-20T13:04:29.558Z,21.56
2019-05-20T13:06:57.794Z,21.51
2019-05-20T13:09:26.016Z,21.54
2019-05-20T13:11:54.235Z,21.59
2019-05-20T13:14:22.446Z,21.61
2019-05-20T13:16:50.698Z,21.53
2019-05-20T13:19:18.917Z,21.50
2019-05-20T13:21:47.154Z,21.42
2019-05-20T13:24:15.384Z,21.41
2019-05-20T13:26:43.627Z,21.40
2019-05-20T13:29:11.820Z,21.37
2019-05-20T13:31:40.070Z,21.36
2019-05-20T13:34:08.285Z,21.42
2019-05-20T13:36:36.502Z,21.48
2019-05-20T13:39:06.412Z,21.46
2019-05-20T13:41:34.645Z,21.49
2019-05-20T13:44:02.865Z,21.48
2019-05-20T13:46:31.081Z,21.48
2019-05-20T13:48:59.305Z,21.46
2019-05-20T13:51:27.553Z,21.42
2019-05-20T13:53:55.762Z,21.43
2019-05-20T13:56:23.986Z,21.43
2019-05-20T13:58:52.208Z,21.43
2019-05-20T14:01:20.472Z,21.51
2019-05-20T14:03:48.692Z,21.63
2019-05-20T14:06:16.892Z,21.68
2019-05-20T14:08:45.151Z,21.67
2019-05-20T14:11:13.682Z,21.71
2019-05-20T14:13:57.305Z,21.81
2019-05-20T14:16:25.547Z,21.93
2019-05-20T14:18:54.170Z,21.96
2019-05-20T14:21:22.395Z,21.95
2019-05-20T14:23:50.940Z,21.16
2019-05-20T14:26:19.999Z,22.08
2019-05-20T14:28:48.680Z,21.88
2019-05-20T14:31:17.352Z,22.21
2019-05-20T14:33:45.650Z,22.30
2019-05-20T14:36:36.074Z,22.40
2019-05-20T14:38:43.855Z,22.54
2019-05-20T14:41:20.991Z,22.64
2019-05-20T14:43:42.037Z,22.64
2019-05-20T14:46:10.248Z,22.60
2019-05-20T14:48:38.480Z,22.52
2019-05-20T14:51:06.694Z,22.46
2019-05-20T14:53:34.912Z,22.52
2019-05-20T14:56:03.111Z,22.58
2019-05-20T14:58:31.336Z,22.65
2019-05-20T15:01:01.274Z,22.54
2019-05-20T15:03:29.466Z,22.50
2019-05-20T15:05:57.675Z,22.55
2019-05-20T15:08:25.896Z,22.69
2019-05-20T15:10:54.155Z,22.82
2019-05-20T15:13:22.363Z,22.90
2019-05-20T15:15:50.805Z,22.92
2019-05-20T15:18:19.033Z,22.91
2019-05-20T15:20:47.253Z,22.86
2019-05-20T15:23:15.469Z,22.71
2019-05-20T15:25:43.720Z,22.55
2019-05-20T15:28:12.298Z,22.46
2019-05-20T15:30:40.537Z,22.41
2019-05-20T15:33:08.790Z,22.47
2019-05-20T15:35:37.009Z,22.51
2019-05-20T15:38:05.222Z,22.53
2019-05-20T15:40:33.440Z,22.52
2019-05-20T15:43:01.874Z,22.57
2019-05-20T15:45:30.067Z,22.53
2019-05-20T15:47:58.289Z,22.55
2019-05-20T15:50:26.591Z,22.48
2019-05-20T15:52:55.339Z,22.41
2019-05-20T15:55:23.924Z,22.31
2019-05-20T15:57:52.141Z,22.29
2019-05-20T16:00:20.386Z,22.36
2019-05-20T16:02:48.955Z,22.28
2019-05-20T16:05:17.190Z,22.20
2019-05-20T16:07:45.409Z,22.28
2019-05-20T16:10:13.651Z,22.37
2019-05-20T16:12:42.481Z,22.39
2019-05-20T16:15:10.692Z,22.24
2019-05-20T16:17:38.916Z,22.15
2019-05-20T16:20:08.183Z,22.20
2019-05-20T16:22:36.433Z,22.25
2019-05-20T16:25:06.077Z,22.15
2019-05-20T16:27:34.368Z,22.07
2019-05-20T16:30:06.804Z,22.05
2019-05-20T16:32:32.741Z,22.08
2019-05-20T16:35:01.019Z,22.16
2019-05-20T16:37:29.249Z,22.22
2019-05-20T16:39:57.547Z,22.23
2019-05-20T16:42:25.775Z,22.24
2019-05-20T16:44:54.424Z,22.25
2019-05-20T16:47:22.644Z,22.18
2019-05-20T16:49:50.883Z,22.15
2019-05-20T16:52:19.113Z,22.08
2019-05-20T16:54:47.348Z,22.26
2019-05-20T16:57:15.564Z,22.29
2019-05-20T16:59:43.855Z,22.26
2019-05-20T17:02:12.156Z,22.27
2019-05-20T17:04:40.390Z,22.26
2019-05-20T17:07:08.620Z,22.20
2019-05-20T17:09:36.893Z,22.19
2019-05-20T17:12:05.070Z,22.19
2019-05-20T17:14:33.290Z,22.17
2019-05-20T17:19:28.774Z,22.01
2019-05-20T17:21:57.103Z,21.96
2019-05-20T17:24:25.406Z,21.93
2019-05-20T17:26:53.631Z,21.90
2019-05-20T17:29:21.869Z,21.82
2019-05-20T17:31:50.079Z,21.69
2019-05-20T17:34:18.387Z,21.61
2019-05-20T17:36:46.593Z,21.52
2019-05-20T17:39:14.944Z,21.46
2019-05-20T17:41:43.230Z,21.44
2019-05-20T17:44:11.459Z,21.44
2019-05-20T17:46:39.656Z,21.45
2019-05-20T17:49:07.884Z,21.42
2019-05-20T17:51:36.123Z,21.38
2019-05-20T17:54:04.373Z,21.39
2019-05-20T17:56:32.594Z,21.47
2019-05-20T17:59:00.843Z,21.51
2019-05-20T18:01:29.069Z,21.43
2019-05-20T18:03:57.275Z,21.41
2019-05-20T18:06:25.507Z,21.37
2019-05-20T18:08:55.358Z,21.34
2019-05-20T18:11:23.584Z,21.25
2019-05-20T18:13:51.924Z,21.16
2019-05-20T18:16:20.164Z,21.06
2019-05-20T18:18:48.383Z,20.99
2019-05-20T18:21:16.630Z,20.95
2019-05-20T18:23:44.829Z,20.91
2019-05-20T18:26:13.042Z,20.90
2019-05-20T18:28:41.262Z,20.87
2019-05-20T18:31:09.477Z,20.85
2019-05-20T18:33:37.866Z,20.77
2019-05-20T18:36:06.198Z,20.71
2019-05-20T18:38:34.417Z,20.63
2019-05-20T18:41:04.276Z,20.61
2019-05-20T18:43:32.498Z,20.54
2019-05-20T18:46:01.059Z,20.46
2019-05-20T18:48:29.343Z,20.40
2019-05-20T18:50:57.572Z,20.36
2019-05-20T18:53:28.792Z,20.32
2019-05-20T18:55:57.008Z,20.28
2019-05-20T18:58:25.251Z,20.24
2019-05-20T19:00:53.467Z,20.20
2019-05-20T19:03:21.994Z,20.14
2019-05-20T19:05:50.512Z,20.10
2019-05-20T19:08:18.752Z,20.07
2019-05-20T19:10:47.011Z,20.03
2019-05-20T19:13:15.276Z,19.96
2019-05-20T19:15:43.578Z,19.91
2019-05-20T19:18:11.865Z,19.85
2019-05-20T19:20:40.086Z,19.82
2019-05-20T19:23:08.712Z,19.79
2019-05-20T19:25:38.135Z,19.74
2019-05-20T19:28:06.534Z,19.69
2019-05-20T19:30:34.770Z,19.66
2019-05-20T19:33:03.012Z,19.62
2019-05-20T19:35:31.231Z,19.60
2019-05-20T19:37:59.453Z,19.56
2019-05-20T19:40:27.681Z,19.53
2019-05-20T19:42:55.907Z,19.49
2019-05-20T19:45:24.215Z,19.46
2019-05-20T19:47:52.446Z,19.44
2019-05-20T19:50:20.690Z,19.41
2019-05-20T19:52:48.971Z,19.39
2019-05-20T19:55:19.061Z,19.36
2019-05-20T19:57:47.128Z,19.32
2019-05-20T20:00:15.369Z,19.29
2019-05-20T20:02:43.689Z,19.25
2019-05-20T20:05:12.144Z,19.22
2019-05-20T20:07:40.302Z,19.19
2019-05-20T20:10:08.537Z,19.16
2019-05-20T20:12:36.757Z,19.15
2019-05-20T20:15:06.184Z,19.15
2019-05-20T20:17:34.399Z,19.15
2019-05-20T20:20:02.793Z,19.15
2019-05-20T20:22:31.034Z,19.15
2019-05-20T20:24:59.246Z,19.15
2019-05-20T20:27:27.480Z,19.12
2019-05-20T20:29:55.687Z,19.10
2019-05-20T20:32:37.465Z,19.07
2019-05-20T20:34:53.880Z,19.03
2019-05-20T20:37:22.084Z,18.97
2019-05-20T20:39:50.312Z,18.92
2019-05-20T20:42:18.543Z,18.88
2019-05-20T20:44:46.841Z,18.86
2019-05-20T20:47:15.095Z,18.85
2019-05-20T20:49:43.341Z,18.83
2019-05-20T20:52:11.563Z,18.82
2019-05-20T20:54:39.780Z,18.80
2019-05-20T20:57:08.023Z,18.78
2019-05-20T20:59:36.236Z,18.77
2019-05-20T21:02:04.541Z,18.76
2019-05-20T21:04:32.840Z,18.76
2019-05-20T21:07:01.091Z,18.75
2019-05-20T21:09:29.359Z,18.73
2019-05-20T21:11:57.550Z,18.71
2019-05-20T21:14:25.794Z,17.77
2019-05-20T21:16:54.013Z,18.74
2019-05-20T21:19:22.262Z,18.76
2019-05-20T21:21:50.755Z,18.77
2019-05-20T21:24:18.965Z,18.79
2019-05-20T21:26:47.183Z,18.78
2019-05-20T21:29:15.410Z,18.76
2019-05-20T21:31:43.620Z,18.76
2019-05-20T21:34:11.870Z,18.73
2019-05-20T21:36:47.725Z,18.72
2019-05-20T21:39:10.038Z,18.71
2019-05-20T21:41:38.299Z,18.70
2019-05-20T21:44:06.485Z,18.67
2019-05-20T21:46:34.728Z,18.65
2019-05-20T21:49:02.943Z,18.63
2019-05-20T21:51:31.151Z,18.61
2019-05-20T21:53:59.370Z,18.55
2019-05-20T21:56:27.581Z,18.55
2019-05-20T21:58:55.801Z,18.51
2019-05-20T22:01:24.010Z,18.48
2019-05-20T22:03:52.244Z,18.46
2019-05-20T22:06:20.497Z,18.43
2019-05-20T22:08:48.733Z,18.41
2019-05-20T22:11:16.930Z,18.39
2019-05-20T22:13:45.165Z,18.36
2019-05-20T22:16:13.374Z,18.33
2019-05-20T22:18:41.584Z,18.28
2019-05-20T22:21:11.507Z,18.28
2019-05-20T22:23:44.430Z,18.27
2019-05-20T22:26:12.631Z,18.23
2019-05-20T22:28:40.867Z,18.21
2019-05-20T22:31:09.066Z,18.21
2019-05-20T22:33:41.832Z,18.19
2019-05-20T22:36:07.286Z,18.17
2019-05-20T22:38:35.493Z,18.15
2019-05-20T22:41:03.726Z,18.13
2019-05-20T22:43:32.013Z,17.14
2019-05-20T22:46:00.228Z,18.10
2019-05-20T22:48:28.485Z,18.08
2019-05-20T22:50:56.702Z,18.07
2019-05-20T22:53:24.906Z,18.04
2019-05-20T22:55:53.131Z,18.03
2019-05-20T22:58:21.344Z,18.01
2019-05-20T23:00:49.571Z,18.00
2019-05-20T23:03:17.779Z,17.99
2019-05-20T23:05:46.007Z,17.96
2019-05-20T23:08:14.211Z,17.91
2019-05-20T23:10:42.414Z,17.82
2019-05-20T23:13:10.673Z,17.75
2019-05-20T23:15:38.999Z,17.66
2019-05-20T23:18:07.193Z,17.59
2019-05-20T23:20:35.455Z,15.56
2019-05-20T23:23:03.631Z,17.48
2019-05-20T23:25:32.167Z,17.44
2019-05-20T23:28:00.396Z,17.39
2019-05-20T23:30:28.635Z,17.36
2019-05-20T23:32:56.858Z,17.32
2019-05-20T23:35:25.103Z,17.28
2019-05-20T23:37:53.314Z,17.26
2019-05-20T23:40:21.543Z,17.24
2019-05-20T23:42:49.762Z,17.22
2019-05-20T23:45:17.989Z,17.22
2019-05-20T23:47:46.219Z,17.18
2019-05-20T23:50:14.443Z,17.18
2019-05-20T23:52:42.640Z,17.17
2019-05-20T23:55:10.862Z,17.17
2019-05-20T23:57:39.165Z,17.18
